createdAt,value
2017-10-08T00:00:05.105Z,10.81
2017-10-08T00:01:05.150Z,10.80
2017-10-08T00:02:05.154Z,10.80
2017-10-08T00:03:05.152Z,10.81
2017-10-08T00:04:05.074Z,10.80
2017-10-08T00:05:05.147Z,10.80
2017-10-08T00:06:05.076Z,10.80
2017-10-08T00:07:05.106Z,10.80
2017-10-08T00:08:05.139Z,10.80
2017-10-08T00:09:05.054Z,10.80
2017-10-08T00:10:05.085Z,10.80
2017-10-08T00:11:05.106Z,10.80
2017-10-08T00:12:05.113Z,10.79
2017-10-08T00:13:05.125Z,10.79
2017-10-08T00:14:05.042Z,10.79
2017-10-08T00:15:05.078Z,10.79
2017-10-08T00:16:05.048Z,10.79
2017-10-08T00:17:05.051Z,10.81
2017-10-08T00:18:05.050Z,10.79
2017-10-08T00:19:05.114Z,10.80
2017-10-08T00:20:05.113Z,10.81
2017-10-08T00:21:05.049Z,10.80
2017-10-08T00:22:05.114Z,10.80
2017-10-08T00:23:05.112Z,10.83
2017-10-08T00:24:05.169Z,10.84
2017-10-08T00:25:05.163Z,10.86
2017-10-08T00:26:05.131Z,10.88
2017-10-08T00:27:05.164Z,10.90
2017-10-08T00:28:05.119Z,10.93
2017-10-08T00:29:05.164Z,10.93
2017-10-08T00:30:05.069Z,10.95
2017-10-08T00:31:05.120Z,10.95
2017-10-08T00:32:05.118Z,10.98
2017-10-08T00:33:05.168Z,11.00
2017-10-08T00:34:05.171Z,11.00
2017-10-08T00:35:05.183Z,11.02
2017-10-08T00:36:05.137Z,11.02
2017-10-08T00:37:05.124Z,11.05
2017-10-08T00:38:05.136Z,11.03
2017-10-08T00:39:05.174Z,11.05
2017-10-08T00:40:05.140Z,11.05
2017-10-08T00:41:05.202Z,11.05
2017-10-08T00:42:05.123Z,11.05
2017-10-08T00:43:05.127Z,11.02
2017-10-08T00:44:05.126Z,11.03
2017-10-08T00:45:05.089Z,11.05
2017-10-08T00:46:05.127Z,11.09
2017-10-08T00:47:05.127Z,11.07
2017-10-08T00:48:05.131Z,11.07
2017-10-08T00:49:05.136Z,11.07
2017-10-08T00:50:05.067Z,11.07
2017-10-08T00:51:05.069Z,11.06
2017-10-08T00:52:05.133Z,11.06
2017-10-08T00:53:05.097Z,11.06
2017-10-08T00:54:05.178Z,11.05
2017-10-08T00:55:05.185Z,11.07
2017-10-08T00:56:05.178Z,11.10
2017-10-08T00:57:05.132Z,11.07
2017-10-08T00:58:05.120Z,11.09
2017-10-08T00:59:05.138Z,11.07
2017-10-08T01:00:05.141Z,11.07
2017-10-08T01:01:05.088Z,11.09
2017-10-08T01:02:05.090Z,11.09
2017-10-08T01:03:05.140Z,11.07
2017-10-08T01:04:05.222Z,11.06
2017-10-08T01:05:05.182Z,11.06
2017-10-08T01:06:05.123Z,11.07
2017-10-08T01:07:05.188Z,11.05
2017-10-08T01:08:05.141Z,11.06
2017-10-08T01:09:05.108Z,11.06
2017-10-08T01:10:05.145Z,11.05
2017-10-08T01:11:05.164Z,11.03
2017-10-08T01:12:05.213Z,11.03
2017-10-08T01:13:05.245Z,11.02
2017-10-08T01:14:05.109Z,11.02
2017-10-08T01:15:05.110Z,11.03
2017-10-08T01:16:05.180Z,11.02
2017-10-08T01:17:05.180Z,11.02
2017-10-08T01:18:05.180Z,11.00
2017-10-08T01:20:05.187Z,10.98
2017-10-08T01:21:05.159Z,10.97
2017-10-08T01:22:05.166Z,10.98
2017-10-08T01:23:05.123Z,10.97
2017-10-08T01:24:05.160Z,10.97
2017-10-08T01:25:05.195Z,10.97
2017-10-08T01:26:05.162Z,10.97
2017-10-08T01:27:05.184Z,10.98
2017-10-08T01:28:05.138Z,10.98
2017-10-08T01:29:05.168Z,10.97
2017-10-08T01:30:05.098Z,10.97
2017-10-08T01:31:05.161Z,10.98
2017-10-08T01:32:05.103Z,10.97
2017-10-08T01:33:05.192Z,10.95
2017-10-08T01:34:05.159Z,10.98
2017-10-08T01:35:05.157Z,10.97
2017-10-08T01:36:05.156Z,10.95
2017-10-08T01:37:05.163Z,10.97
2017-10-08T01:38:05.208Z,10.95
2017-10-08T01:39:05.205Z,10.95
2017-10-08T01:40:05.212Z,10.95
2017-10-08T01:41:05.165Z,10.97
2017-10-08T01:42:05.207Z,10.95
2017-10-08T01:43:05.113Z,10.95
2017-10-08T01:44:05.102Z,10.95
2017-10-08T01:45:05.132Z,10.95
2017-10-08T01:46:05.169Z,10.94
2017-10-08T01:47:05.102Z,10.94
2017-10-08T01:48:05.163Z,10.93
2017-10-08T01:49:05.129Z,10.91
2017-10-08T01:50:05.128Z,10.91
2017-10-08T01:51:05.167Z,10.90
2017-10-08T01:52:05.146Z,10.87
2017-10-08T01:53:05.169Z,10.86
2017-10-08T01:54:05.172Z,10.84
2017-10-08T01:55:05.213Z,10.81
2017-10-08T01:56:05.172Z,10.81
2017-10-08T01:57:05.230Z,10.80
2017-10-08T01:58:05.139Z,10.79
2017-10-08T01:59:05.171Z,10.77
2017-10-08T02:00:05.121Z,10.77
2017-10-08T02:01:05.216Z,10.77
2017-10-08T02:02:05.218Z,10.77
2017-10-08T02:03:05.333Z,10.75
2017-10-08T02:04:05.157Z,10.75
2017-10-08T02:05:05.146Z,10.74
2017-10-08T02:06:05.169Z,10.74
2017-10-08T02:07:05.218Z,10.72
2017-10-08T02:08:05.207Z,10.72
2017-10-08T02:09:05.119Z,10.72
2017-10-08T02:10:05.224Z,10.72
2017-10-08T02:11:05.225Z,10.72
2017-10-08T02:12:05.213Z,10.72
2017-10-08T02:13:05.177Z,10.75
2017-10-08T02:14:05.180Z,10.77
2017-10-08T02:15:05.180Z,10.79
2017-10-08T02:16:05.179Z,10.80
2017-10-08T02:17:05.135Z,10.81
2017-10-08T02:18:05.181Z,10.81
2017-10-08T02:19:05.213Z,10.81
2017-10-08T02:20:05.136Z,10.81
2017-10-08T02:21:05.185Z,10.83
2017-10-08T02:22:05.185Z,10.84
2017-10-08T02:23:05.186Z,10.83
2017-10-08T02:24:05.194Z,10.84
2017-10-08T02:25:05.166Z,10.87
2017-10-08T02:26:05.240Z,10.84
2017-10-08T02:27:05.234Z,10.84
2017-10-08T02:28:05.237Z,10.86
2017-10-08T02:29:05.206Z,10.86
2017-10-08T02:30:05.241Z,10.87
2017-10-08T02:31:05.233Z,10.88
2017-10-08T02:32:05.209Z,10.91
2017-10-08T02:33:05.238Z,10.94
2017-10-08T02:34:05.239Z,10.93
2017-10-08T02:35:05.196Z,10.93
2017-10-08T02:36:05.179Z,10.94
2017-10-08T02:37:05.213Z,10.94
2017-10-08T02:38:05.196Z,10.94
2017-10-08T02:39:05.199Z,10.97
2017-10-08T02:40:05.200Z,11.00
2017-10-08T02:41:05.202Z,10.98
2017-10-08T02:42:05.197Z,11.02
2017-10-08T02:43:05.263Z,11.02
2017-10-08T02:44:05.145Z,11.03
2017-10-08T02:45:05.168Z,11.02
2017-10-08T02:46:05.199Z,11.03
2017-10-08T02:47:05.244Z,11.03
2017-10-08T02:48:05.180Z,11.03
2017-10-08T02:49:05.198Z,11.03
2017-10-08T02:50:05.196Z,11.03
2017-10-08T02:51:05.198Z,11.03
2017-10-08T02:52:05.185Z,11.03
2017-10-08T02:53:05.216Z,11.03
2017-10-08T02:54:05.241Z,11.03
2017-10-08T02:55:05.217Z,11.03
2017-10-08T02:56:05.181Z,11.03
2017-10-08T02:57:05.152Z,11.03
2017-10-08T02:58:05.171Z,11.02
2017-10-08T02:59:05.241Z,11.02
2017-10-08T03:00:05.195Z,11.03
2017-10-08T03:01:05.259Z,11.02
2017-10-08T03:02:05.219Z,11.03
2017-10-08T03:03:05.249Z,11.00
2017-10-08T03:04:05.263Z,10.98
2017-10-08T03:05:05.253Z,11.00
2017-10-08T03:06:05.213Z,11.00
2017-10-08T03:07:05.256Z,11.00
2017-10-08T03:08:05.214Z,10.98
2017-10-08T03:09:05.158Z,10.98
2017-10-08T03:10:05.216Z,10.98
2017-10-08T03:11:05.254Z,10.97
2017-10-08T03:12:05.204Z,10.95
2017-10-08T03:13:05.199Z,10.95
2017-10-08T03:14:05.218Z,10.94
2017-10-08T03:15:05.201Z,10.95
2017-10-08T03:16:05.170Z,10.95
2017-10-08T03:17:05.237Z,10.95
2017-10-08T03:18:05.262Z,10.95
2017-10-08T03:19:05.289Z,10.95
2017-10-08T03:20:05.265Z,10.97
2017-10-08T03:21:05.266Z,10.97
2017-10-08T03:22:05.294Z,10.97
2017-10-08T03:23:05.265Z,11.00
2017-10-08T03:24:05.183Z,10.98
2017-10-08T03:25:05.268Z,10.98
2017-10-08T03:26:05.220Z,11.00
2017-10-08T03:27:05.275Z,11.00
2017-10-08T03:28:05.226Z,11.03
2017-10-08T03:29:05.272Z,11.05
2017-10-08T03:30:05.230Z,11.03
2017-10-08T03:31:05.278Z,11.05
2017-10-08T03:32:05.223Z,11.06
2017-10-08T03:33:05.275Z,11.07
2017-10-08T03:34:05.194Z,11.09
2017-10-08T03:35:05.177Z,11.10
2017-10-08T03:36:05.303Z,11.10
2017-10-08T03:37:05.204Z,11.10
2017-10-08T03:38:05.264Z,11.13
2017-10-08T03:39:05.259Z,11.13
2017-10-08T03:40:05.178Z,11.13
2017-10-08T03:41:05.227Z,11.14
2017-10-08T03:42:05.211Z,11.14
2017-10-08T03:43:05.230Z,11.16
2017-10-08T03:44:05.300Z,11.16
2017-10-08T03:45:05.238Z,11.18
2017-10-08T03:46:05.314Z,11.17
2017-10-08T03:47:05.203Z,11.17
2017-10-08T03:48:05.191Z,11.18
2017-10-08T03:49:05.241Z,11.17
2017-10-08T03:50:05.236Z,11.16
2017-10-08T03:51:05.290Z,11.17
2017-10-08T03:52:05.287Z,11.17
2017-10-08T03:53:05.237Z,11.16
2017-10-08T03:54:05.395Z,11.16
2017-10-08T03:55:05.239Z,11.16
2017-10-08T03:56:05.238Z,11.14
2017-10-08T03:57:05.250Z,11.14
2017-10-08T03:58:05.289Z,11.14
2017-10-08T03:59:05.209Z,11.14
2017-10-08T04:00:05.291Z,11.13
2017-10-08T04:01:05.196Z,11.17
2017-10-08T04:02:05.202Z,11.18
2017-10-08T04:03:05.241Z,11.20
2017-10-08T04:04:05.294Z,11.21
2017-10-08T04:05:05.246Z,11.21
2017-10-08T04:06:05.296Z,11.21
2017-10-08T04:07:05.252Z,11.22
2017-10-08T04:08:05.303Z,11.22
2017-10-08T04:09:05.196Z,11.22
2017-10-08T04:10:05.295Z,11.25
2017-10-08T04:11:05.302Z,11.27
2017-10-08T04:12:05.231Z,11.28
2017-10-08T04:13:05.267Z,11.28
2017-10-08T04:14:05.250Z,11.29
2017-10-08T04:15:05.298Z,11.28
2017-10-08T04:16:05.254Z,11.28
2017-10-08T04:17:05.308Z,11.27
2017-10-08T04:18:05.305Z,11.25
2017-10-08T04:19:05.254Z,11.28
2017-10-08T04:20:05.256Z,11.27
2017-10-08T04:21:05.310Z,11.27
2017-10-08T04:22:05.268Z,11.27
2017-10-08T04:23:05.310Z,11.27
2017-10-08T04:24:05.213Z,11.25
2017-10-08T04:25:05.305Z,11.27
2017-10-08T04:26:05.273Z,11.27
2017-10-08T04:27:05.307Z,11.27
2017-10-08T04:28:05.261Z,11.28
2017-10-08T04:29:05.260Z,11.28
2017-10-08T04:30:05.228Z,11.28
2017-10-08T04:31:05.261Z,11.29
2017-10-08T04:32:05.267Z,11.29
2017-10-08T04:33:05.265Z,11.28
2017-10-08T04:34:05.312Z,11.29
2017-10-08T04:35:05.305Z,11.29
2017-10-08T04:36:05.229Z,11.31
2017-10-08T04:37:05.247Z,11.28
2017-10-08T04:38:05.273Z,11.29
2017-10-08T04:39:05.315Z,11.29
2017-10-08T04:40:05.337Z,11.29
2017-10-08T04:41:05.236Z,11.28
2017-10-08T04:42:05.311Z,11.28
2017-10-08T04:43:05.269Z,11.28
2017-10-08T04:44:05.300Z,11.28
2017-10-08T04:45:05.221Z,11.27
2017-10-08T04:46:05.266Z,11.28
2017-10-08T04:47:05.220Z,11.28
2017-10-08T04:48:05.284Z,11.28
2017-10-08T04:49:05.269Z,11.29
2017-10-08T04:50:05.238Z,11.31
2017-10-08T04:51:05.314Z,11.31
2017-10-08T04:52:05.280Z,11.31
2017-10-08T04:53:05.302Z,11.32
2017-10-08T04:54:05.268Z,11.32
2017-10-08T04:55:05.269Z,11.32
2017-10-08T04:56:05.312Z,11.31
2017-10-08T04:57:05.273Z,11.31
2017-10-08T04:58:05.227Z,11.31
2017-10-08T04:59:05.295Z,11.31
2017-10-08T05:00:05.259Z,11.31
2017-10-08T05:01:05.250Z,11.31
2017-10-08T05:02:05.293Z,11.28
2017-10-08T05:03:05.233Z,11.27
2017-10-08T05:04:05.218Z,11.28
2017-10-08T05:05:05.236Z,11.28
2017-10-08T05:06:05.202Z,11.27
2017-10-08T05:07:05.196Z,11.27
2017-10-08T05:08:05.283Z,11.25
2017-10-08T05:09:05.235Z,11.25
2017-10-08T05:10:05.271Z,11.21
2017-10-08T05:11:05.226Z,11.20
2017-10-08T05:12:05.240Z,11.18
2017-10-08T05:13:05.213Z,11.18
2017-10-08T05:14:05.298Z,11.17
2017-10-08T05:15:05.331Z,11.18
2017-10-08T05:16:05.256Z,11.20
2017-10-08T05:17:05.301Z,11.20
2017-10-08T05:18:05.336Z,11.20
2017-10-08T05:19:05.308Z,11.18
2017-10-08T05:20:05.266Z,11.17
2017-10-08T05:21:05.263Z,11.16
2017-10-08T05:22:05.289Z,11.16
2017-10-08T05:23:05.300Z,11.14
2017-10-08T05:24:05.300Z,11.16
2017-10-08T05:25:05.292Z,11.16
2017-10-08T05:26:05.321Z,11.14
2017-10-08T05:27:05.243Z,11.14
2017-10-08T05:28:05.340Z,11.16
2017-10-08T05:29:05.296Z,11.14
2017-10-08T05:30:05.353Z,11.14
2017-10-08T05:31:05.313Z,11.13
2017-10-08T05:32:05.366Z,11.13
2017-10-08T05:33:05.365Z,11.11
2017-10-08T05:34:05.303Z,11.10
2017-10-08T05:35:05.346Z,11.09
2017-10-08T05:36:05.301Z,11.07
2017-10-08T05:37:05.377Z,11.05
2017-10-08T05:38:05.351Z,11.02
2017-10-08T05:39:05.349Z,10.97
2017-10-08T05:40:05.353Z,10.95
2017-10-08T05:41:05.307Z,10.93
2017-10-08T05:42:05.301Z,10.93
2017-10-08T05:43:05.377Z,10.93
2017-10-08T05:44:05.283Z,10.91
2017-10-08T05:45:05.311Z,10.91
2017-10-08T05:46:05.285Z,10.87
2017-10-08T05:47:05.340Z,10.86
2017-10-08T05:48:05.336Z,10.84
2017-10-08T05:49:05.317Z,10.81
2017-10-08T05:50:05.344Z,10.81
2017-10-08T05:51:05.255Z,10.86
2017-10-08T05:52:05.344Z,10.88
2017-10-08T05:53:05.306Z,10.90
2017-10-08T05:54:05.263Z,10.91
2017-10-08T05:55:05.316Z,10.95
2017-10-08T05:56:05.358Z,10.97
2017-10-08T05:57:05.313Z,10.98
2017-10-08T05:58:05.359Z,11.00
2017-10-08T05:59:05.385Z,11.02
2017-10-08T06:00:05.281Z,11.02
2017-10-08T06:01:05.315Z,11.02
2017-10-08T06:02:05.358Z,11.02
2017-10-08T06:03:05.323Z,11.02
2017-10-08T06:04:05.363Z,11.03
2017-10-08T06:05:05.320Z,11.03
2017-10-08T06:06:05.304Z,11.05
2017-10-08T06:07:05.337Z,11.05
2017-10-08T06:08:05.389Z,11.05
2017-10-08T06:09:05.322Z,11.05
2017-10-08T06:10:05.336Z,11.05
2017-10-08T06:11:05.273Z,11.06
2017-10-08T06:12:05.368Z,11.06
2017-10-08T06:13:05.323Z,11.05
2017-10-08T06:14:05.288Z,11.06
2017-10-08T06:15:05.323Z,11.07
2017-10-08T06:16:05.350Z,11.07
2017-10-08T06:17:05.302Z,11.07
2017-10-08T06:18:05.379Z,11.09
2017-10-08T06:19:05.308Z,11.10
2017-10-08T06:20:05.363Z,11.10
2017-10-08T06:21:05.302Z,11.11
2017-10-08T06:22:05.369Z,11.11
2017-10-08T06:23:05.368Z,11.13
2017-10-08T06:24:05.295Z,11.16
2017-10-08T06:25:05.357Z,11.17
2017-10-08T06:26:05.331Z,11.17
2017-10-08T06:27:05.278Z,11.20
2017-10-08T06:28:05.353Z,11.21
2017-10-08T06:29:05.316Z,11.22
2017-10-08T06:30:05.367Z,11.22
2017-10-08T06:31:05.362Z,11.25
2017-10-08T06:32:05.326Z,11.27
2017-10-08T06:33:05.274Z,11.27
2017-10-08T06:34:05.337Z,11.27
2017-10-08T06:35:05.311Z,11.27
2017-10-08T06:36:05.335Z,11.27
2017-10-08T06:37:05.363Z,11.29
2017-10-08T06:38:05.315Z,11.29
2017-10-08T06:39:05.279Z,11.31
2017-10-08T06:40:05.386Z,11.31
2017-10-08T06:41:05.385Z,11.31
2017-10-08T06:42:05.311Z,11.29
2017-10-08T06:43:05.280Z,11.29
2017-10-08T06:44:05.332Z,11.29
2017-10-08T06:45:05.337Z,11.31
2017-10-08T06:46:05.338Z,11.31
2017-10-08T06:47:05.302Z,11.33
2017-10-08T06:48:05.315Z,11.35
2017-10-08T06:49:05.338Z,11.35
2017-10-08T06:50:05.334Z,11.38
2017-10-08T06:51:05.342Z,11.38
2017-10-08T06:52:05.305Z,11.40
2017-10-08T06:53:05.280Z,11.42
2017-10-08T06:54:05.293Z,11.43
2017-10-08T06:55:05.313Z,11.46
2017-10-08T06:56:05.292Z,11.46
2017-10-08T06:57:05.329Z,11.46
2017-10-08T06:58:05.352Z,11.50
2017-10-08T06:59:05.349Z,11.51
2017-10-08T07:00:05.377Z,11.54
2017-10-08T07:01:05.336Z,11.56
2017-10-08T07:02:05.354Z,11.57
2017-10-08T07:03:05.400Z,11.57
2017-10-08T07:04:05.315Z,11.58
2017-10-08T07:05:05.291Z,11.58
2017-10-08T07:06:05.313Z,11.60
2017-10-08T07:07:05.270Z,11.58
2017-10-08T07:08:05.303Z,11.61
2017-10-08T07:09:05.298Z,11.61
2017-10-08T07:10:05.363Z,11.61
2017-10-08T07:11:05.324Z,11.61
2017-10-08T07:12:05.402Z,11.61
2017-10-08T07:13:05.329Z,11.61
2017-10-08T07:14:05.360Z,11.62
2017-10-08T07:15:05.320Z,11.62
2017-10-08T07:16:05.361Z,11.65
2017-10-08T07:17:05.401Z,11.67
2017-10-08T07:18:05.361Z,11.68
2017-10-08T07:19:05.405Z,11.69
2017-10-08T07:20:05.363Z,11.69
2017-10-08T07:21:05.365Z,11.71
2017-10-08T07:22:05.323Z,11.71
2017-10-08T07:23:05.402Z,11.72
2017-10-08T07:24:05.388Z,11.73
2017-10-08T07:25:05.363Z,11.75
2017-10-08T07:26:05.389Z,11.76
2017-10-08T07:27:05.309Z,11.76
2017-10-08T07:28:05.376Z,11.76
2017-10-08T07:29:05.420Z,11.78
2017-10-08T07:30:05.364Z,11.78
2017-10-08T07:31:05.330Z,11.76
2017-10-08T07:32:05.344Z,11.78
2017-10-08T07:33:05.351Z,11.78
2017-10-08T07:34:05.418Z,11.79
2017-10-08T07:35:05.373Z,11.78
2017-10-08T07:36:05.328Z,11.80
2017-10-08T07:37:05.303Z,11.82
2017-10-08T07:38:05.306Z,11.84
2017-10-08T07:39:05.335Z,11.87
2017-10-08T07:40:05.334Z,11.91
2017-10-08T07:41:05.306Z,11.89
2017-10-08T07:42:05.306Z,11.92
2017-10-08T07:43:05.335Z,11.89
2017-10-08T07:44:05.310Z,11.91
2017-10-08T07:45:05.373Z,11.92
2017-10-08T07:46:05.413Z,11.92
2017-10-08T07:47:05.381Z,11.91
2017-10-08T07:48:05.421Z,11.91
2017-10-08T07:49:05.423Z,11.91
2017-10-08T07:50:05.355Z,11.94
2017-10-08T07:51:05.358Z,11.95
2017-10-08T07:52:05.365Z,11.95
2017-10-08T07:53:05.426Z,11.95
2017-10-08T07:54:05.378Z,11.97
2017-10-08T07:55:05.387Z,11.95
2017-10-08T07:56:05.325Z,11.95
2017-10-08T07:57:05.347Z,11.95
2017-10-08T07:58:05.326Z,11.91
2017-10-08T07:59:05.353Z,11.91
2017-10-08T08:00:05.394Z,11.89
2017-10-08T08:01:05.347Z,11.89
2017-10-08T08:02:05.389Z,11.87
2017-10-08T08:03:05.365Z,11.89
2017-10-08T08:04:05.428Z,11.89
2017-10-08T08:05:05.323Z,11.91
2017-10-08T08:06:05.432Z,11.94
2017-10-08T08:07:05.322Z,11.94
2017-10-08T08:08:05.324Z,11.95
2017-10-08T08:09:05.389Z,11.94
2017-10-08T08:10:05.386Z,11.94
2017-10-08T08:11:05.354Z,11.95
2017-10-08T08:12:05.354Z,11.99
2017-10-08T08:13:05.388Z,12.01
2017-10-08T08:14:05.353Z,12.02
2017-10-08T08:15:05.395Z,12.03
2017-10-08T08:16:05.407Z,12.06
2017-10-08T08:17:05.442Z,12.06
2017-10-08T08:18:05.438Z,12.12
2017-10-08T08:19:05.437Z,12.16
2017-10-08T08:20:05.444Z,12.21
2017-10-08T08:21:05.354Z,12.22
2017-10-08T08:22:05.441Z,12.22
2017-10-08T08:23:05.406Z,12.26
2017-10-08T08:24:05.437Z,12.28
2017-10-08T08:25:05.467Z,12.29
2017-10-08T08:26:05.342Z,12.33
2017-10-08T08:27:05.401Z,12.36
2017-10-08T08:28:05.390Z,12.39
2017-10-08T08:29:05.446Z,12.42
2017-10-08T08:30:05.347Z,12.43
2017-10-08T08:31:05.411Z,12.42
2017-10-08T08:32:05.447Z,12.39
2017-10-08T08:33:05.409Z,12.37
2017-10-08T08:34:05.382Z,12.35
2017-10-08T08:35:05.340Z,12.36
2017-10-08T08:36:05.313Z,12.37
2017-10-08T08:37:05.320Z,12.36
2017-10-08T08:38:05.354Z,12.33
2017-10-08T08:39:05.371Z,12.32
2017-10-08T08:40:05.352Z,12.26
2017-10-08T08:41:05.346Z,12.20
2017-10-08T08:42:05.343Z,12.16
2017-10-08T08:43:05.430Z,12.14
2017-10-08T08:44:05.344Z,12.02
2017-10-08T08:45:05.416Z,11.94
2017-10-08T08:46:05.459Z,11.84
2017-10-08T08:47:05.418Z,11.78
2017-10-08T08:48:05.390Z,11.71
2017-10-08T08:49:05.367Z,11.64
2017-10-08T08:50:05.412Z,11.58
2017-10-08T08:51:05.411Z,11.54
2017-10-08T08:52:05.412Z,11.49
2017-10-08T08:53:05.428Z,11.46
2017-10-08T08:54:05.398Z,11.50
2017-10-08T08:55:05.472Z,11.50
2017-10-08T08:56:05.399Z,11.49
2017-10-08T08:57:05.420Z,11.49
2017-10-08T08:58:05.464Z,11.49
2017-10-08T08:59:05.467Z,11.50
2017-10-08T09:00:05.387Z,11.51
2017-10-08T09:01:05.463Z,11.56
2017-10-08T09:02:05.466Z,11.53
2017-10-08T09:03:05.406Z,11.51
2017-10-08T09:04:05.429Z,11.50
2017-10-08T09:05:05.358Z,11.51
2017-10-08T09:06:05.357Z,11.54
2017-10-08T09:07:05.385Z,11.56
2017-10-08T09:08:05.388Z,11.58
2017-10-08T09:09:05.445Z,11.62
2017-10-08T09:10:05.420Z,11.62
2017-10-08T09:11:05.388Z,11.65
2017-10-08T09:12:05.424Z,11.71
2017-10-08T09:13:05.389Z,11.76
2017-10-08T09:14:05.424Z,11.83
2017-10-08T09:15:05.436Z,11.89
2017-10-08T09:16:05.356Z,11.89
2017-10-08T09:17:05.368Z,11.98
2017-10-08T09:18:05.390Z,12.06
2017-10-08T09:19:05.388Z,12.09
2017-10-08T09:20:05.368Z,12.20
2017-10-08T09:21:05.371Z,12.24
2017-10-08T09:22:05.358Z,12.24
2017-10-08T09:23:05.390Z,12.24
2017-10-08T09:24:05.382Z,12.29
2017-10-08T09:25:05.381Z,12.35
2017-10-08T09:26:05.382Z,12.33
2017-10-08T09:27:05.440Z,12.40
2017-10-08T09:28:05.504Z,12.43
2017-10-08T09:29:05.440Z,12.48
2017-10-08T09:30:05.440Z,12.57
2017-10-08T09:31:05.449Z,12.58
2017-10-08T09:32:05.405Z,12.69
2017-10-08T09:33:05.489Z,12.86
2017-10-08T09:34:05.403Z,12.96
2017-10-08T09:35:05.407Z,13.14
2017-10-08T09:36:05.408Z,13.24
2017-10-08T09:37:05.453Z,13.25
2017-10-08T09:38:05.450Z,13.36
2017-10-08T09:39:05.484Z,13.45
2017-10-08T09:40:05.469Z,13.59
2017-10-08T09:41:05.453Z,13.59
2017-10-08T09:42:05.691Z,13.47
2017-10-08T09:43:05.425Z,13.39
2017-10-08T09:44:05.479Z,13.39
2017-10-08T09:45:05.457Z,13.29
2017-10-08T09:46:05.456Z,13.29
2017-10-08T09:47:05.491Z,13.34
2017-10-08T09:48:05.398Z,13.42
2017-10-08T09:49:05.425Z,13.43
2017-10-08T09:50:05.431Z,13.36
2017-10-08T09:51:05.461Z,13.34
2017-10-08T09:52:05.433Z,13.27
2017-10-08T09:53:05.415Z,13.24
2017-10-08T09:54:05.426Z,13.23
2017-10-08T09:55:05.413Z,13.23
2017-10-08T09:56:05.498Z,13.24
2017-10-08T09:57:05.432Z,13.12
2017-10-08T09:58:05.484Z,13.05
2017-10-08T09:59:05.414Z,13.02
2017-10-08T10:00:05.431Z,13.07
2017-10-08T10:01:05.417Z,13.05
2017-10-08T10:02:05.436Z,12.94
2017-10-08T10:03:05.401Z,12.83
2017-10-08T10:04:05.418Z,12.75
2017-10-08T10:05:05.454Z,12.72
2017-10-08T10:06:05.464Z,12.73
2017-10-08T10:07:05.422Z,12.77
2017-10-08T10:08:05.422Z,12.83
2017-10-08T10:09:05.420Z,12.89
2017-10-08T10:10:05.396Z,12.94
2017-10-08T10:11:05.425Z,12.92
2017-10-08T10:12:05.461Z,12.94
2017-10-08T10:13:05.457Z,12.87
2017-10-08T10:14:05.401Z,12.89
2017-10-08T10:15:05.414Z,12.92
2017-10-08T10:16:05.466Z,12.91
2017-10-08T10:17:05.623Z,12.86
2017-10-08T10:18:05.470Z,12.89
2017-10-08T10:19:05.494Z,12.87
2017-10-08T10:20:05.510Z,12.89
2017-10-08T10:21:05.469Z,12.86
2017-10-08T10:22:05.485Z,12.87
2017-10-08T10:23:05.501Z,12.84
2017-10-08T10:24:05.516Z,12.82
2017-10-08T10:25:05.445Z,12.76
2017-10-08T10:26:05.423Z,12.72
2017-10-08T10:27:05.518Z,12.66
2017-10-08T10:28:05.448Z,12.60
2017-10-08T10:29:05.453Z,12.57
2017-10-08T10:30:05.519Z,12.57
2017-10-08T10:31:05.456Z,12.55
2017-10-08T10:32:05.474Z,12.58
2017-10-08T10:33:05.451Z,12.61
2017-10-08T10:34:05.505Z,12.62
2017-10-08T10:35:05.438Z,12.66
2017-10-08T10:36:05.421Z,12.72
2017-10-08T10:37:05.524Z,12.79
2017-10-08T10:38:05.525Z,12.89
2017-10-08T10:39:05.482Z,12.92
2017-10-08T10:40:05.522Z,12.92
2017-10-08T10:41:05.590Z,12.99
2017-10-08T10:42:05.488Z,13.03
2017-10-08T10:43:05.553Z,13.06
2017-10-08T10:44:05.507Z,13.12
2017-10-08T10:45:05.427Z,13.14
2017-10-08T10:46:05.515Z,13.20
2017-10-08T10:47:05.462Z,13.18
2017-10-08T10:48:05.509Z,13.24
2017-10-08T10:49:05.518Z,13.24
2017-10-08T10:50:05.496Z,13.27
2017-10-08T10:51:05.462Z,13.24
2017-10-08T10:52:05.434Z,13.24
2017-10-08T10:53:05.436Z,13.20
2017-10-08T10:54:05.451Z,13.20
2017-10-08T10:55:05.450Z,13.05
2017-10-08T10:56:05.442Z,13.00
2017-10-08T10:57:05.412Z,12.98
2017-10-08T10:58:05.440Z,12.94
2017-10-08T10:59:05.459Z,12.89
2017-10-08T11:00:05.496Z,12.87
2017-10-08T11:01:05.427Z,12.86
2017-10-08T11:02:05.460Z,12.86
2017-10-08T11:03:05.402Z,12.86
2017-10-08T11:04:05.406Z,12.83
2017-10-08T11:05:05.425Z,12.82
2017-10-08T11:06:05.451Z,12.79
2017-10-08T11:07:05.456Z,12.79
2017-10-08T11:08:05.456Z,12.79
2017-10-08T11:09:05.491Z,12.80
2017-10-08T11:10:05.462Z,12.83
2017-10-08T11:11:05.433Z,12.86
2017-10-08T11:12:05.433Z,12.87
2017-10-08T11:13:05.457Z,12.91
2017-10-08T11:14:05.494Z,12.94
2017-10-08T11:15:05.510Z,12.95
2017-10-08T11:16:05.502Z,12.92
2017-10-08T11:17:05.483Z,12.91
2017-10-08T11:18:05.448Z,12.96
2017-10-08T11:19:05.441Z,12.94
2017-10-08T11:20:05.535Z,12.95
2017-10-08T11:21:05.501Z,12.96
2017-10-08T11:22:05.519Z,12.96
2017-10-08T11:23:05.474Z,12.96
2017-10-08T11:24:05.475Z,12.98
2017-10-08T11:25:05.505Z,13.03
2017-10-08T11:26:05.553Z,13.10
2017-10-08T11:27:05.508Z,13.13
2017-10-08T11:28:05.533Z,13.12
2017-10-08T11:29:05.504Z,13.12
2017-10-08T11:30:05.552Z,13.14
2017-10-08T11:31:05.509Z,13.16
2017-10-08T11:32:05.490Z,13.12
2017-10-08T11:33:05.557Z,13.12
2017-10-08T11:34:05.495Z,13.10
2017-10-08T11:35:05.555Z,13.07
2017-10-08T11:36:05.489Z,13.10
2017-10-08T11:37:05.551Z,13.10
2017-10-08T11:38:05.478Z,13.13
2017-10-08T11:39:05.481Z,13.09
2017-10-08T11:40:05.493Z,13.07
2017-10-08T11:41:05.550Z,13.05
2017-10-08T11:42:05.525Z,13.02
2017-10-08T11:43:05.554Z,12.95
2017-10-08T11:44:05.491Z,12.98
2017-10-08T11:45:05.450Z,13.00
2017-10-08T11:46:05.455Z,13.05
2017-10-08T11:47:05.480Z,13.07
2017-10-08T11:48:05.513Z,13.07
2017-10-08T11:49:05.483Z,13.05
2017-10-08T11:50:05.523Z,13.00
2017-10-08T11:51:05.456Z,12.98
2017-10-08T11:52:05.461Z,12.96
2017-10-08T11:53:05.486Z,12.95
2017-10-08T11:54:05.445Z,12.96
2017-10-08T11:55:05.531Z,12.95
2017-10-08T11:56:05.567Z,12.92
2017-10-08T11:57:05.536Z,12.87
2017-10-08T11:58:05.551Z,12.87
2017-10-08T11:59:05.575Z,12.91
2017-10-08T12:00:05.580Z,12.95
2017-10-08T12:01:05.537Z,12.98
2017-10-08T12:02:05.556Z,13.02
2017-10-08T12:03:05.584Z,13.09
2017-10-08T12:04:05.542Z,13.12
2017-10-08T12:05:05.523Z,13.10
2017-10-08T12:06:05.458Z,13.14
2017-10-08T12:07:05.527Z,13.12
2017-10-08T12:08:05.486Z,13.13
2017-10-08T12:09:05.465Z,13.17
2017-10-08T12:10:05.522Z,13.20
2017-10-08T12:11:05.532Z,13.20
2017-10-08T12:12:05.527Z,13.27
2017-10-08T12:13:05.529Z,13.32
2017-10-08T12:14:05.531Z,13.40
2017-10-08T12:15:05.588Z,13.46
2017-10-08T12:16:05.481Z,13.50
2017-10-08T12:17:05.557Z,13.54
2017-10-08T12:18:05.536Z,13.57
2017-10-08T12:19:05.545Z,13.56
2017-10-08T12:20:05.586Z,13.53
2017-10-08T12:21:05.609Z,13.51
2017-10-08T12:22:05.515Z,13.53
2017-10-08T12:23:05.613Z,13.59
2017-10-08T12:24:05.569Z,13.62
2017-10-08T12:25:05.477Z,13.62
2017-10-08T12:26:05.502Z,13.57
2017-10-08T12:27:05.478Z,13.59
2017-10-08T12:28:05.549Z,13.54
2017-10-08T12:29:05.546Z,13.49
2017-10-08T12:30:05.540Z,13.47
2017-10-08T12:31:05.542Z,13.45
2017-10-08T12:32:05.543Z,13.39
2017-10-08T12:33:05.511Z,13.42
2017-10-08T12:34:05.481Z,13.43
2017-10-08T12:35:05.550Z,13.47
2017-10-08T12:36:05.546Z,13.54
2017-10-08T12:37:05.590Z,13.64
2017-10-08T12:38:05.600Z,13.66
2017-10-08T12:39:05.592Z,13.59
2017-10-08T12:40:05.514Z,13.57
2017-10-08T12:41:05.597Z,13.66
2017-10-08T12:42:05.502Z,13.70
2017-10-08T12:43:05.496Z,13.73
2017-10-08T12:44:05.537Z,13.76
2017-10-08T12:45:05.517Z,13.79
2017-10-08T12:46:05.588Z,13.80
2017-10-08T12:47:05.594Z,13.84
2017-10-08T12:48:05.550Z,13.89
2017-10-08T12:49:05.554Z,13.88
2017-10-08T12:50:05.591Z,13.88
2017-10-08T12:51:05.561Z,13.91
2017-10-08T12:52:05.528Z,13.86
2017-10-08T12:53:05.566Z,13.76